Mars — XPC8385 — position and weather

sailwx.info

Track history (hours):
 
Tides and Currents Weather Stations Pressure Air Temp Water Temp Dewpoint Dewpoint Depression Visibility Wind Speed Wind Dir Waves Ship Positions

Mars

Last reported at 2014-Sep-18 17:30 UTC. Time now 2014-Sep-18 17:42 UTC.
Position N 55°17' E 014°48'.

Length 14 m; draft 1.7 m.

Type: Pilot. MMSI: 219001058.

Date/timePositionNaut miles runAvg speedWind from/ knotsBaromVisibWave heightAir tempDewpointWater temp
2014-Sep-18 17:30N 55°17' E 014°48'0 0.0
2014-Sep-18 16:24N 55°17' E 014°48'0 0.0
2014-Sep-18 15:12N 55°17' E 014°48'0 0.0
2014-Sep-18 14:23N 55°17' E 014°48'0 0.0
2014-Sep-18 13:29N 55°17' E 014°48'0 0.0
2014-Sep-18 12:23N 55°17' E 014°48'0 0.0
2014-Sep-18 11:17N 55°17' E 014°48'0 0.0
2014-Sep-18 10:11N 55°17' E 014°48'0 0.0
2014-Sep-18 09:17N 55°17' E 014°48'0 0.0
2014-Sep-18 08:23N 55°17' E 014°48'0 0.0
2014-Sep-18 07:11N 55°17' E 014°48'0 0.0
2014-Sep-18 06:29N 55°17' E 014°48'2 1.7
2014-Sep-18 05:33N 55°17' E 014°45'0 0.0
2014-Sep-18 04:24N 55°17' E 014°45'0 0.0
2014-Sep-18 03:30N 55°17' E 014°45'0 0.0
2014-Sep-18 02:30N 55°17' E 014°45'0 0.0
2014-Sep-18 01:30N 55°17' E 014°45'0 0.0
2014-Sep-18 00:12N 55°17' E 014°45'0 0.0
2014-Sep-17 23:29N 55°17' E 014°45'0 0.0
2014-Sep-17 22:24N 55°17' E 014°45'1 1.6
2014-Sep-17 21:33N 55°16' E 014°43'1 1.1
2014-Sep-17 20:19N 55°17' E 014°45'0 0.0
2014-Sep-17 19:31N 55°17' E 014°45'0 0.0
2014-Sep-17 18:19N 55°17' E 014°45'0 0.0
2014-Sep-17 17:25N 55°17' E 014°45'0 0.0
2014-Sep-17 16:31N 55°17' E 014°45'0 0.0
2014-Sep-17 15:31N 55°17' E 014°45'0 0.0
2014-Sep-17 14:31N 55°17' E 014°45'0 0.0
2014-Sep-17 13:31N 55°17' E 014°45'2 1.7
2014-Sep-17 12:33N 55°18' E 014°43'2 1.6
2014-Sep-17 11:33N 55°17' E 014°45'0 0.0
2014-Sep-17 10:33N 55°17' E 014°45'0 0.0
2014-Sep-17 09:33N 55°17' E 014°45'0 0.0
2014-Sep-17 08:33N 55°17' E 014°45'0 0.0
2014-Sep-17 07:33N 55°17' E 014°45'0 0.0
2014-Sep-17 06:33N 55°17' E 014°45'0 0.0
2014-Sep-17 05:33N 55°17' E 014°45'0 0.0
2014-Sep-17 04:33N 55°17' E 014°45'0 0.0
2014-Sep-17 03:33N 55°17' E 014°45'0 0.0
2014-Sep-17 02:34N 55°17' E 014°45'0 0.0
2014-Sep-17 01:33N 55°17' E 014°45'0 0.0
2014-Sep-17 00:33N 55°17' E 014°45'0 0.0
2014-Sep-16 23:33N 55°17' E 014°45'0 0.0
2014-Sep-16 22:33N 55°17' E 014°45'0 0.3
2014-Sep-16 21:33N 55°17' E 014°45'0 0.3
2014-Sep-16 20:33N 55°17' E 014°45'0 0.0
2014-Sep-16 19:33N 55°17' E 014°45'0 0.0
2014-Sep-16 18:33N 55°17' E 014°45'0 0.0
2014-Sep-16 17:33N 55°17' E 014°45'0 0.0
2014-Sep-16 16:33N 55°17' E 014°45'0 0.0
2014-Sep-16 15:33N 55°17' E 014°45'0 0.0
2014-Sep-16 14:33N 55°17' E 014°45'0 0.0
2014-Sep-16 13:32N 55°17' E 014°45'0 0.0
2014-Sep-16 12:33N 55°17' E 014°45'0 0.0
2014-Sep-16 11:33N 55°17' E 014°45'0 0.0
2014-Sep-16 10:33N 55°17' E 014°45'0 0.0
2014-Sep-16 09:33N 55°17' E 014°45'0 0.0
2014-Sep-16 08:33N 55°17' E 014°45'0 0.0
2014-Sep-16 07:33N 55°17' E 014°45'0 0.0
2014-Sep-16 06:33N 55°17' E 014°45'1 0.6
2014-Sep-16 05:33N 55°17' E 014°45'4 3.7
2014-Sep-16 04:33N 55°15' E 014°50'0 0.0
2014-Sep-16 03:31N 55°15' E 014°50'0 0.0
2014-Sep-16 02:34N 55°15' E 014°50'0 0.0
2014-Sep-16 01:33N 55°15' E 014°50'0 0.0
2014-Sep-16 00:33N 55°15' E 014°50'0 0.0
2014-Sep-15 23:33N 55°15' E 014°50'0 0.0
2014-Sep-15 22:34N 55°15' E 014°50'0 0.0
2014-Sep-15 21:33N 55°15' E 014°50'0 0.0
2014-Sep-15 20:34N 55°15' E 014°50'0 0.0
2014-Sep-15 19:34N 55°15' E 014°50'0 0.0
2014-Sep-15 18:33N 55°15' E 014°50'0 0.0
2014-Sep-15 17:33N 55°15' E 014°50'0 0.0
2014-Sep-15 16:33N 55°15' E 014°50'0 0.0
2014-Sep-15 15:33N 55°15' E 014°50'0 0.0
2014-Sep-15 14:33N 55°15' E 014°50'0 0.0
2014-Sep-15 13:33N 55°15' E 014°50'0 0.0
2014-Sep-15 12:33N 55°15' E 014°50'0 0.0
2014-Sep-15 11:33N 55°15' E 014°50'0 0.0
2014-Sep-15 10:34N 55°15' E 014°50'0 0.0
2014-Sep-15 09:33N 55°15' E 014°50'0 0.0
2014-Sep-15 08:33N 55°15' E 014°50'0 0.0
2014-Sep-15 07:33N 55°15' E 014°50'0 0.0
2014-Sep-15 06:33N 55°15' E 014°50'3 3.0
2014-Sep-15 05:28N 55°17' E 014°45'0 0.0
2014-Sep-15 04:22N 55°17' E 014°45'0 0.0
2014-Sep-15 03:28N 55°17' E 014°45'0 0.0
2014-Sep-15 02:28N 55°17' E 014°45'0 0.0
2014-Sep-15 01:28N 55°17' E 014°45'0 0.0
2014-Sep-15 00:28N 55°17' E 014°45'0 0.0
2014-Sep-14 23:28N 55°17' E 014°45'0 0.0
2014-Sep-14 22:28N 55°17' E 014°45'0 0.0
2014-Sep-14 21:28N 55°17' E 014°45'0 0.0
2014-Sep-14 20:31N 55°17' E 014°45'0 0.0
2014-Sep-14 19:28N 55°17' E 014°45'0 0.0
2014-Sep-14 18:28N 55°17' E 014°45'1 0.6
2014-Sep-14 17:33N 55°16' E 014°44'1 0.5
2014-Sep-14 16:24N 55°17' E 014°45'0 0.0
2014-Sep-14 15:33N 55°17' E 014°45'0 0.0
2014-Sep-14 14:27N 55°17' E 014°45'0 0.0
2014-Sep-14 13:27N 55°17' E 014°45'0 0.0
2014-Sep-14 12:33N 55°17' E 014°45'0 0.0
2014-Sep-14 11:33N 55°17' E 014°45'0 0.0
2014-Sep-14 10:33N 55°17' E 014°45'0 0.0
2014-Sep-14 09:27N 55°17' E 014°45'0 0.0
2014-Sep-12 09:33N 55°17' E 014°45'2 1.5
2014-Sep-12 08:28N 55°17' E 014°48'0 0.0
2014-Sep-12 07:16N 55°17' E 014°48'0 0.0
2014-Sep-12 06:16N 55°17' E 014°48'0 0.0
2014-Sep-12 05:22N 55°17' E 014°48'0 0.0
2014-Sep-12 04:24N 55°17' E 014°48'0 0.0
2014-Sep-12 03:18N 55°17' E 014°48'0 0.0
2014-Sep-12 02:21N 55°17' E 014°48'0 0.0
2014-Sep-12 01:28N 55°17' E 014°48'0 0.0
2014-Sep-12 00:28N 55°17' E 014°48'0 0.0
2014-Sep-11 23:28N 55°17' E 014°48'0 0.0
2014-Sep-11 22:04N 55°17' E 014°48'0 0.0
2014-Sep-11 21:10N 55°17' E 014°48'0 0.0
2014-Sep-11 20:28N 55°17' E 014°48'0 0.0
2014-Sep-11 19:28N 55°17' E 014°48'0 0.0
2014-Sep-11 18:28N 55°17' E 014°48'0 0.0
2014-Sep-11 17:22N 55°17' E 014°48'0 0.0
2014-Sep-11 15:22N 55°17' E 014°48'0 0.0
2014-Sep-11 12:33N 55°17' E 014°48'0 0.0
2014-Sep-11 11:23N 55°17' E 014°48'0 0.0
2014-Sep-11 01:11N 55°17' E 014°48'0 0.0
2014-Sep-10 23:17N 55°17' E 014°48'0 0.0
2014-Sep-10 22:23N 55°17' E 014°48'0 0.0
2014-Sep-10 21:23N 55°17' E 014°48'0 0.0
2014-Sep-10 18:15N 55°17' E 014°48'2 3.1
2014-Sep-10 17:33N 55°19' E 014°47'2 1.7
2014-Sep-10 16:20N 55°17' E 014°48'1 0.7
2014-Sep-10 14:33N 55°18' E 014°48'1 1.2
2014-Sep-10 13:25N 55°17' E 014°48'0 0.0
2014-Sep-10 11:28N 55°17' E 014°48'0 0.0
2014-Sep-10 08:24N 55°17' E 014°48'0 0.0
2014-Sep-10 05:15N 55°17' E 014°48'0 0.0
2014-Sep-10 04:09N 55°17' E 014°48'0 0.0
2014-Sep-10 03:33N 55°17' E 014°48'0 0.0
2014-Sep-10 02:21N 55°17' E 014°48'0 0.0
2014-Sep-10 01:15N 55°17' E 014°48'0 0.0
2014-Sep-10 00:03N 55°17' E 014°48'0 0.0
2014-Sep-09 23:27N 55°17' E 014°48'0 0.0
2014-Sep-09 21:33N 55°17' E 014°48'0 0.0
2014-Sep-09 20:27N 55°17' E 014°48'0 0.0
2014-Sep-09 19:21N 55°17' E 014°48'0 0.0
2014-Sep-09 16:31N 55°17' E 014°48'0 0.0
2014-Sep-09 15:24N 55°17' E 014°48'0 0.0
2014-Sep-09 14:12N 55°17' E 014°48'0 0.0
2014-Sep-09 13:24N 55°17' E 014°48'0 0.0
2014-Sep-09 12:18N 55°17' E 014°48'0 0.0
2014-Sep-09 11:24N 55°17' E 014°48'0 0.0
2014-Sep-09 10:30N 55°17' E 014°48'0 0.0
2014-Sep-09 09:24N 55°17' E 014°48'0 0.0
2014-Sep-09 08:30N 55°17' E 014°48'0 0.0
2014-Sep-09 07:30N 55°17' E 014°48'0 0.0
2014-Sep-09 06:30N 55°17' E 014°48'0 0.0
2014-Sep-09 05:24N 55°17' E 014°48'0 0.0
2014-Sep-09 04:18N 55°17' E 014°48'0 0.0
2014-Sep-09 03:30N 55°17' E 014°48'0 0.0
2014-Sep-09 02:18N 55°17' E 014°48'0 0.0
2014-Sep-09 01:30N 55°17' E 014°48'0 0.0
2014-Sep-09 00:33N 55°17' E 014°48'0 0.0
2014-Sep-08 23:26N 55°17' E 014°48'0 0.0
2014-Sep-08 22:32N 55°17' E 014°48'0 0.0
2014-Sep-08 21:32N 55°17' E 014°48'0 0.0
2014-Sep-08 20:20N 55°17' E 014°48'0 0.0
2014-Sep-08 19:32N 55°17' E 014°48'0 0.0
2014-Sep-08 18:32N 55°17' E 014°48'0 0.0
2014-Sep-08 17:32N 55°17' E 014°48'  
Track history (hours):
 
Tides and Currents Weather Stations Pressure Air Temp Water Temp Dewpoint Dewpoint Depression Visibility Wind Speed Wind Dir Waves Ship Positions

Mars

Last reported at 2014-Sep-18 17:30 UTC. Time now 2014-Sep-18 17:42 UTC.
Position N 55°17' E 014°48'.

Length 14 m; draft 1.7 m.

Type: Pilot. MMSI: 219001058.

Date/timePositionNaut miles runAvg speedWind from/ knotsBaromVisibWave heightAir tempDewpointWater temp
2014-Sep-18 17:30N 55°17' E 014°48'0 0.0
2014-Sep-18 16:24N 55°17' E 014°48'0 0.0
2014-Sep-18 15:12N 55°17' E 014°48'0 0.0
2014-Sep-18 14:23N 55°17' E 014°48'0 0.0
2014-Sep-18 13:29N 55°17' E 014°48'0 0.0
2014-Sep-18 12:23N 55°17' E 014°48'0 0.0
2014-Sep-18 11:17N 55°17' E 014°48'0 0.0
2014-Sep-18 10:11N 55°17' E 014°48'0 0.0
2014-Sep-18 09:17N 55°17' E 014°48'0 0.0
2014-Sep-18 08:23N 55°17' E 014°48'0 0.0
2014-Sep-18 07:11N 55°17' E 014°48'0 0.0
2014-Sep-18 06:29N 55°17' E 014°48'2 1.7
2014-Sep-18 05:33N 55°17' E 014°45'0 0.0
2014-Sep-18 04:24N 55°17' E 014°45'0 0.0
2014-Sep-18 03:30N 55°17' E 014°45'0 0.0
2014-Sep-18 02:30N 55°17' E 014°45'0 0.0
2014-Sep-18 01:30N 55°17' E 014°45'0 0.0
2014-Sep-18 00:12N 55°17' E 014°45'0 0.0
2014-Sep-17 23:29N 55°17' E 014°45'0 0.0
2014-Sep-17 22:24N 55°17' E 014°45'1 1.6
2014-Sep-17 21:33N 55°16' E 014°43'1 1.1
2014-Sep-17 20:19N 55°17' E 014°45'0 0.0
2014-Sep-17 19:31N 55°17' E 014°45'0 0.0
2014-Sep-17 18:19N 55°17' E 014°45'0 0.0
2014-Sep-17 17:25N 55°17' E 014°45'0 0.0
2014-Sep-17 16:31N 55°17' E 014°45'0 0.0
2014-Sep-17 15:31N 55°17' E 014°45'0 0.0
2014-Sep-17 14:31N 55°17' E 014°45'0 0.0
2014-Sep-17 13:31N 55°17' E 014°45'2 1.7
2014-Sep-17 12:33N 55°18' E 014°43'2 1.6
2014-Sep-17 11:33N 55°17' E 014°45'0 0.0
2014-Sep-17 10:33N 55°17' E 014°45'0 0.0
2014-Sep-17 09:33N 55°17' E 014°45'0 0.0
2014-Sep-17 08:33N 55°17' E 014°45'0 0.0
2014-Sep-17 07:33N 55°17' E 014°45'0 0.0
2014-Sep-17 06:33N 55°17' E 014°45'0 0.0
2014-Sep-17 05:33N 55°17' E 014°45'0 0.0
2014-Sep-17 04:33N 55°17' E 014°45'0 0.0
2014-Sep-17 03:33N 55°17' E 014°45'0 0.0
2014-Sep-17 02:34N 55°17' E 014°45'0 0.0
2014-Sep-17 01:33N 55°17' E 014°45'0 0.0
2014-Sep-17 00:33N 55°17' E 014°45'0 0.0
2014-Sep-16 23:33N 55°17' E 014°45'0 0.0
2014-Sep-16 22:33N 55°17' E 014°45'0 0.3
2014-Sep-16 21:33N 55°17' E 014°45'0 0.3
2014-Sep-16 20:33N 55°17' E 014°45'0 0.0
2014-Sep-16 19:33N 55°17' E 014°45'0 0.0
2014-Sep-16 18:33N 55°17' E 014°45'0 0.0
2014-Sep-16 17:33N 55°17' E 014°45'0 0.0
2014-Sep-16 16:33N 55°17' E 014°45'0 0.0
2014-Sep-16 15:33N 55°17' E 014°45'0 0.0
2014-Sep-16 14:33N 55°17' E 014°45'0 0.0
2014-Sep-16 13:32N 55°17' E 014°45'0 0.0
2014-Sep-16 12:33N 55°17' E 014°45'0 0.0
2014-Sep-16 11:33N 55°17' E 014°45'0 0.0
2014-Sep-16 10:33N 55°17' E 014°45'0 0.0
2014-Sep-16 09:33N 55°17' E 014°45'0 0.0
2014-Sep-16 08:33N 55°17' E 014°45'0 0.0
2014-Sep-16 07:33N 55°17' E 014°45'0 0.0
2014-Sep-16 06:33N 55°17' E 014°45'1 0.6
2014-Sep-16 05:33N 55°17' E 014°45'4 3.7
2014-Sep-16 04:33N 55°15' E 014°50'0 0.0
2014-Sep-16 03:31N 55°15' E 014°50'0 0.0
2014-Sep-16 02:34N 55°15' E 014°50'0 0.0
2014-Sep-16 01:33N 55°15' E 014°50'0 0.0
2014-Sep-16 00:33N 55°15' E 014°50'0 0.0
2014-Sep-15 23:33N 55°15' E 014°50'0 0.0
2014-Sep-15 22:34N 55°15' E 014°50'0 0.0
2014-Sep-15 21:33N 55°15' E 014°50'0 0.0
2014-Sep-15 20:34N 55°15' E 014°50'0 0.0
2014-Sep-15 19:34N 55°15' E 014°50'0 0.0
2014-Sep-15 18:33N 55°15' E 014°50'0 0.0
2014-Sep-15 17:33N 55°15' E 014°50'0 0.0
2014-Sep-15 16:33N 55°15' E 014°50'0 0.0
2014-Sep-15 15:33N 55°15' E 014°50'0 0.0
2014-Sep-15 14:33N 55°15' E 014°50'0 0.0
2014-Sep-15 13:33N 55°15' E 014°50'0 0.0
2014-Sep-15 12:33N 55°15' E 014°50'0 0.0
2014-Sep-15 11:33N 55°15' E 014°50'0 0.0
2014-Sep-15 10:34N 55°15' E 014°50'0 0.0
2014-Sep-15 09:33N 55°15' E 014°50'0 0.0
2014-Sep-15 08:33N 55°15' E 014°50'0 0.0
2014-Sep-15 07:33N 55°15' E 014°50'0 0.0
2014-Sep-15 06:33N 55°15' E 014°50'3 3.0
2014-Sep-15 05:28N 55°17' E 014°45'0 0.0
2014-Sep-15 04:22N 55°17' E 014°45'0 0.0
2014-Sep-15 03:28N 55°17' E 014°45'0 0.0
2014-Sep-15 02:28N 55°17' E 014°45'0 0.0
2014-Sep-15 01:28N 55°17' E 014°45'0 0.0
2014-Sep-15 00:28N 55°17' E 014°45'0 0.0
2014-Sep-14 23:28N 55°17' E 014°45'0 0.0
2014-Sep-14 22:28N 55°17' E 014°45'0 0.0
2014-Sep-14 21:28N 55°17' E 014°45'0 0.0
2014-Sep-14 20:31N 55°17' E 014°45'0 0.0
2014-Sep-14 19:28N 55°17' E 014°45'0 0.0
2014-Sep-14 18:28N 55°17' E 014°45'1 0.6
2014-Sep-14 17:33N 55°16' E 014°44'1 0.5
2014-Sep-14 16:24N 55°17' E 014°45'0 0.0
2014-Sep-14 15:33N 55°17' E 014°45'0 0.0
2014-Sep-14 14:27N 55°17' E 014°45'0 0.0
2014-Sep-14 13:27N 55°17' E 014°45'0 0.0
2014-Sep-14 12:33N 55°17' E 014°45'0 0.0
2014-Sep-14 11:33N 55°17' E 014°45'0 0.0
2014-Sep-14 10:33N 55°17' E 014°45'0 0.0
2014-Sep-14 09:27N 55°17' E 014°45'0 0.0
2014-Sep-12 09:33N 55°17' E 014°45'2 1.5
2014-Sep-12 08:28N 55°17' E 014°48'0 0.0
2014-Sep-12 07:16N 55°17' E 014°48'0 0.0
2014-Sep-12 06:16N 55°17' E 014°48'0 0.0
2014-Sep-12 05:22N 55°17' E 014°48'0 0.0
2014-Sep-12 04:24N 55°17' E 014°48'0 0.0
2014-Sep-12 03:18N 55°17' E 014°48'0 0.0
2014-Sep-12 02:21N 55°17' E 014°48'0 0.0
2014-Sep-12 01:28N 55°17' E 014°48'0 0.0
2014-Sep-12 00:28N 55°17' E 014°48'0 0.0
2014-Sep-11 23:28N 55°17' E 014°48'0 0.0
2014-Sep-11 22:04N 55°17' E 014°48'0 0.0
2014-Sep-11 21:10N 55°17' E 014°48'0 0.0
2014-Sep-11 20:28N 55°17' E 014°48'0 0.0
2014-Sep-11 19:28N 55°17' E 014°48'0 0.0
2014-Sep-11 18:28N 55°17' E 014°48'0 0.0
2014-Sep-11 17:22N 55°17' E 014°48'0 0.0
2014-Sep-11 15:22N 55°17' E 014°48'0 0.0
2014-Sep-11 12:33N 55°17' E 014°48'0 0.0
2014-Sep-11 11:23N 55°17' E 014°48'0 0.0
2014-Sep-11 01:11N 55°17' E 014°48'0 0.0
2014-Sep-10 23:17N 55°17' E 014°48'0 0.0
2014-Sep-10 22:23N 55°17' E 014°48'0 0.0
2014-Sep-10 21:23N 55°17' E 014°48'0 0.0
2014-Sep-10 18:15N 55°17' E 014°48'2 3.1
2014-Sep-10 17:33N 55°19' E 014°47'2 1.7
2014-Sep-10 16:20N 55°17' E 014°48'1 0.7
2014-Sep-10 14:33N 55°18' E 014°48'1 1.2
2014-Sep-10 13:25N 55°17' E 014°48'0 0.0
2014-Sep-10 11:28N 55°17' E 014°48'0 0.0
2014-Sep-10 08:24N 55°17' E 014°48'0 0.0
2014-Sep-10 05:15N 55°17' E 014°48'0 0.0
2014-Sep-10 04:09N 55°17' E 014°48'0 0.0
2014-Sep-10 03:33N 55°17' E 014°48'0 0.0
2014-Sep-10 02:21N 55°17' E 014°48'0 0.0
2014-Sep-10 01:15N 55°17' E 014°48'0 0.0
2014-Sep-10 00:03N 55°17' E 014°48'0 0.0
2014-Sep-09 23:27N 55°17' E 014°48'0 0.0
2014-Sep-09 21:33N 55°17' E 014°48'0 0.0
2014-Sep-09 20:27N 55°17' E 014°48'0 0.0
2014-Sep-09 19:21N 55°17' E 014°48'0 0.0
2014-Sep-09 16:31N 55°17' E 014°48'0 0.0
2014-Sep-09 15:24N 55°17' E 014°48'0 0.0
2014-Sep-09 14:12N 55°17' E 014°48'0 0.0
2014-Sep-09 13:24N 55°17' E 014°48'0 0.0
2014-Sep-09 12:18N 55°17' E 014°48'0 0.0
2014-Sep-09 11:24N 55°17' E 014°48'0 0.0
2014-Sep-09 10:30N 55°17' E 014°48'0 0.0
2014-Sep-09 09:24N 55°17' E 014°48'0 0.0
2014-Sep-09 08:30N 55°17' E 014°48'0 0.0
2014-Sep-09 07:30N 55°17' E 014°48'0 0.0
2014-Sep-09 06:30N 55°17' E 014°48'0 0.0
2014-Sep-09 05:24N 55°17' E 014°48'0 0.0
2014-Sep-09 04:18N 55°17' E 014°48'0 0.0
2014-Sep-09 03:30N 55°17' E 014°48'0 0.0
2014-Sep-09 02:18N 55°17' E 014°48'0 0.0
2014-Sep-09 01:30N 55°17' E 014°48'0 0.0
2014-Sep-09 00:33N 55°17' E 014°48'0 0.0
2014-Sep-08 23:26N 55°17' E 014°48'0 0.0
2014-Sep-08 22:32N 55°17' E 014°48'0 0.0
2014-Sep-08 21:32N 55°17' E 014°48'0 0.0
2014-Sep-08 20:20N 55°17' E 014°48'0 0.0
2014-Sep-08 19:32N 55°17' E 014°48'0 0.0
2014-Sep-08 18:32N 55°17' E 014°48'0 0.0
2014-Sep-08 17:32N 55°17' E 014°48'  

Dump ship's entire track history